Overview Statistics Trail Chart Weather Telemetry Raw packets
 

This is the latest recevied weather packets stored in our database for station/object SQ4IXR-4. If no packets are shown the sender has not sent any weather packets the latest 10 day(s).

<< 30 31 32 33 34 35 36 >>
Time Temp. Humidity Pressure Rain* Wind** Luminosity Snow
1788000761 18.89° C 77% 1016.8 hPa - - - -
1787999940 22.22° C 52% 1016.3 hPa - - - -
1787999117 23.33° C 47% 1016.1 hPa - - - -
1787998294 24.44° C 44% 1016 hPa - - - -
1787997472 23.89° C 45% 1016.1 hPa - - - -
1787996648 25.56° C 42% 1015.7 hPa - - - -
1787995824 25.56° C 43% 1015.5 hPa - - - -
1787995003 26.11° C 42% 1015.6 hPa - - - -
1787994175 25° C 44% 1015.7 hPa - - - -
1787993353 27.22° C 39% 1015.7 hPa - - - -
1787992524 25° C 44% 1015.7 hPa - - - -
1787991700 23.33° C 49% 1016 hPa - - - -
1787990876 22.22° C 51% 1016.1 hPa - - - -
1787990047 21.11° C 53% 1016.1 hPa - - - -
1787989223 20.56° C 56% 1016.2 hPa - - - -
1787988397 20° C 57% 1016.2 hPa - - - -
1787987575 19.44° C 58% 1016.4 hPa - - - -
1787986750 19.44° C 58% 1016.5 hPa - - - -
1787985929 20° C 55% 1016.5 hPa - - - -
1787985114 22.78° C 46% 1016.6 hPa - - - -
1787984289 23.89° C 44% 1016.6 hPa - - - -
1787983465 22.22° C 47% 1016.8 hPa - - - -
1787982637 22.22° C 48% 1016.7 hPa - - - -
1787981809 19.44° C 57% 1017 hPa - - - -
1787980983 17.78° C 63% 1017.1 hPa - - - -

* Rain since midnight (hover to see other rain measurements)
** Current wind speed in m/s (hover to see current wind gust speed)